Ambrosia Lake, New Mexico
Current Conditions -  °F | °C
As of 2:57 PM on Thursday 27 Nov 2014 (Local Time) from KGNT Reporting Station
Clear Clear  
Wind Chill: 63°   Ceiling: Unl
Heat Index: 63°   Visibility: 10mi
Dew Point:   Wind: 3mph
Humidity: 11%   Direction: 360°N
Pressure: 30.37"   Gusts: NA
Location:  35.2644°N, 107.733°W
Report Text: KGNT 272157Z AUTO 36003KT 10SM CLR 17/M14 A3037 RMK AO2
Loading
Personal Weather Stations






























Interactive Weather Map New forecast layout! Learn more

10-Day Weather Forecast

Advertisements
Track Severe Weather on mobile